sensor_id;sensor_type;location;lat;lon;timestamp;P1;durP1;ratioP1;P2;durP2;ratioP2
77466;SDS011;66564;42.482;25.548;2023-04-15T00:00:08;9.05;;;3.35;;
77466;SDS011;66564;42.482;25.548;2023-04-15T00:02:34;7.20;;;3.70;;
77466;SDS011;66564;42.482;25.548;2023-04-15T00:05:01;8.70;;;3.63;;
77466;SDS011;66564;42.482;25.548;2023-04-15T00:07:27;6.95;;;3.65;;
77466;SDS011;66564;42.482;25.548;2023-04-15T00:09:53;9.95;;;3.42;;
77466;SDS011;66564;42.482;25.548;2023-04-15T00:12:21;7.25;;;3.38;;
77466;SDS011;66564;42.482;25.548;2023-04-15T00:14:47;10.45;;;3.20;;
77466;SDS011;66564;42.482;25.548;2023-04-15T00:17:14;10.65;;;3.20;;
77466;SDS011;66564;42.482;25.548;2023-04-15T00:19:39;8.60;;;3.67;;
77466;SDS011;66564;42.482;25.548;2023-04-15T00:22:05;8.82;;;2.90;;
77466;SDS011;66564;42.482;25.548;2023-04-15T00:24:32;8.73;;;4.65;;
77466;SDS011;66564;42.482;25.548;2023-04-15T00:26:58;12.00;;;3.38;;
77466;SDS011;66564;42.482;25.548;2023-04-15T00:29:24;9.48;;;4.00;;
77466;SDS011;66564;42.482;25.548;2023-04-15T00:31:50;12.77;;;3.65;;
77466;SDS011;66564;42.482;25.548;2023-04-15T00:34:15;9.02;;;3.50;;
77466;SDS011;66564;42.482;25.548;2023-04-15T00:36:41;10.30;;;3.55;;
77466;SDS011;66564;42.482;25.548;2023-04-15T00:39:07;9.82;;;3.90;;
77466;SDS011;66564;42.482;25.548;2023-04-15T00:41:32;10.80;;;3.95;;
77466;SDS011;66564;42.482;25.548;2023-04-15T00:43:58;9.82;;;3.78;;
77466;SDS011;66564;42.482;25.548;2023-04-15T00:46:25;9.30;;;3.45;;
77466;SDS011;66564;42.482;25.548;2023-04-15T00:48:53;10.63;;;3.67;;
77466;SDS011;66564;42.482;25.548;2023-04-15T00:51:19;14.65;;;3.65;;
77466;SDS011;66564;42.482;25.548;2023-04-15T00:53:44;8.00;;;4.10;;
77466;SDS011;66564;42.482;25.548;2023-04-15T00:56:10;14.10;;;3.58;;
77466;SDS011;66564;42.482;25.548;2023-04-15T00:58:36;12.18;;;3.78;;
77466;SDS011;66564;42.482;25.548;2023-04-15T01:01:02;12.23;;;3.78;;
77466;SDS011;66564;42.482;25.548;2023-04-15T01:03:28;7.53;;;3.70;;
77466;SDS011;66564;42.482;25.548;2023-04-15T01:05:54;10.10;;;4.63;;
77466;SDS011;66564;42.482;25.548;2023-04-15T01:08:28;13.68;;;4.10;;
77466;SDS011;66564;42.482;25.548;2023-04-15T01:10:58;17.90;;;4.00;;
77466;SDS011;66564;42.482;25.548;2023-04-15T01:13:27;12.07;;;3.65;;
77466;SDS011;66564;42.482;25.548;2023-04-15T01:15:53;11.32;;;3.50;;
77466;SDS011;66564;42.482;25.548;2023-04-15T01:18:20;6.55;;;3.70;;
77466;SDS011;66564;42.482;25.548;2023-04-15T01:20:47;10.52;;;3.80;;
77466;SDS011;66564;42.482;25.548;2023-04-15T01:23:13;8.85;;;4.20;;
77466;SDS011;66564;42.482;25.548;2023-04-15T01:25:38;15.20;;;4.47;;
77466;SDS011;66564;42.482;25.548;2023-04-15T01:28:08;16.38;;;4.50;;
77466;SDS011;66564;42.482;25.548;2023-04-15T01:30:34;14.77;;;4.38;;
77466;SDS011;66564;42.482;25.548;2023-04-15T01:32:59;11.40;;;4.85;;
77466;SDS011;66564;42.482;25.548;2023-04-15T01:35:25;10.23;;;4.93;;
77466;SDS011;66564;42.482;25.548;2023-04-15T01:37:52;10.82;;;4.97;;
77466;SDS011;66564;42.482;25.548;2023-04-15T01:40:18;14.07;;;4.40;;
77466;SDS011;66564;42.482;25.548;2023-04-15T01:42:44;9.20;;;3.70;;
77466;SDS011;66564;42.482;25.548;2023-04-15T01:45:10;8.73;;;4.35;;
77466;SDS011;66564;42.482;25.548;2023-04-15T01:47:37;18.25;;;4.57;;
77466;SDS011;66564;42.482;25.548;2023-04-15T01:50:03;13.93;;;4.40;;
77466;SDS011;66564;42.482;25.548;2023-04-15T01:52:29;9.82;;;3.97;;
77466;SDS011;66564;42.482;25.548;2023-04-15T01:54:54;7.82;;;3.47;;
77466;SDS011;66564;42.482;25.548;2023-04-15T01:57:20;12.05;;;3.75;;
77466;SDS011;66564;42.482;25.548;2023-04-15T01:59:45;13.45;;;3.78;;
77466;SDS011;66564;42.482;25.548;2023-04-15T02:02:11;6.53;;;3.90;;
77466;SDS011;66564;42.482;25.548;2023-04-15T02:04:36;12.75;;;4.00;;
77466;SDS011;66564;42.482;25.548;2023-04-15T02:07:02;7.97;;;4.15;;
77466;SDS011;66564;42.482;25.548;2023-04-15T02:09:28;8.63;;;3.53;;
77466;SDS011;66564;42.482;25.548;2023-04-15T02:11:54;9.38;;;4.35;;
77466;SDS011;66564;42.482;25.548;2023-04-15T02:14:19;9.88;;;4.20;;
77466;SDS011;66564;42.482;25.548;2023-04-15T02:16:45;10.88;;;4.30;;
77466;SDS011;66564;42.482;25.548;2023-04-15T02:19:10;5.20;;;3.70;;
77466;SDS011;66564;42.482;25.548;2023-04-15T02:21:36;9.82;;;3.72;;
77466;SDS011;66564;42.482;25.548;2023-04-15T02:24:02;9.40;;;3.38;;
77466;SDS011;66564;42.482;25.548;2023-04-15T02:26:28;12.02;;;3.53;;
77466;SDS011;66564;42.482;25.548;2023-04-15T02:28:56;8.55;;;4.88;;
77466;SDS011;66564;42.482;25.548;2023-04-15T02:31:22;8.93;;;3.58;;
77466;SDS011;66564;42.482;25.548;2023-04-15T02:33:47;9.80;;;3.65;;
77466;SDS011;66564;42.482;25.548;2023-04-15T02:36:13;7.47;;;4.05;;
77466;SDS011;66564;42.482;25.548;2023-04-15T02:38:38;11.68;;;3.45;;
77466;SDS011;66564;42.482;25.548;2023-04-15T02:41:06;11.13;;;4.53;;
77466;SDS011;66564;42.482;25.548;2023-04-15T02:43:33;10.82;;;4.00;;
77466;SDS011;66564;42.482;25.548;2023-04-15T02:45:59;12.55;;;3.90;;
77466;SDS011;66564;42.482;25.548;2023-04-15T02:48:24;10.65;;;3.90;;
77466;SDS011;66564;42.482;25.548;2023-04-15T02:50:50;11.65;;;4.35;;
77466;SDS011;66564;42.482;25.548;2023-04-15T02:53:15;16.35;;;5.45;;
77466;SDS011;66564;42.482;25.548;2023-04-15T02:55:41;11.65;;;4.38;;
77466;SDS011;66564;42.482;25.548;2023-04-15T02:58:07;7.90;;;3.80;;
77466;SDS011;66564;42.482;25.548;2023-04-15T03:00:32;14.73;;;4.55;;
77466;SDS011;66564;42.482;25.548;2023-04-15T03:03:00;10.13;;;4.05;;
77466;SDS011;66564;42.482;25.548;2023-04-15T03:05:27;11.52;;;4.05;;
77466;SDS011;66564;42.482;25.548;2023-04-15T03:07:52;11.48;;;5.05;;
77466;SDS011;66564;42.482;25.548;2023-04-15T03:10:18;13.13;;;5.20;;
77466;SDS011;66564;42.482;25.548;2023-04-15T03:12:45;15.73;;;4.78;;
77466;SDS011;66564;42.482;25.548;2023-04-15T03:15:10;10.65;;;5.30;;
77466;SDS011;66564;42.482;25.548;2023-04-15T03:17:36;12.77;;;5.03;;
77466;SDS011;66564;42.482;25.548;2023-04-15T03:20:02;11.52;;;4.68;;
77466;SDS011;66564;42.482;25.548;2023-04-15T03:22:32;9.23;;;4.50;;
77466;SDS011;66564;42.482;25.548;2023-04-15T03:24:58;11.25;;;4.90;;
77466;SDS011;66564;42.482;25.548;2023-04-15T03:27:26;10.80;;;4.85;;
77466;SDS011;66564;42.482;25.548;2023-04-15T03:29:52;12.27;;;4.32;;
77466;SDS011;66564;42.482;25.548;2023-04-15T03:32:17;8.43;;;4.55;;
77466;SDS011;66564;42.482;25.548;2023-04-15T03:34:43;15.10;;;4.70;;
77466;SDS011;66564;42.482;25.548;2023-04-15T03:37:08;15.25;;;5.32;;
77466;SDS011;66564;42.482;25.548;2023-04-15T03:39:34;8.68;;;4.40;;
77466;SDS011;66564;42.482;25.548;2023-04-15T03:41:59;7.30;;;4.15;;
77466;SDS011;66564;42.482;25.548;2023-04-15T03:44:26;11.98;;;4.40;;
77466;SDS011;66564;42.482;25.548;2023-04-15T03:46:52;12.40;;;4.72;;
77466;SDS011;66564;42.482;25.548;2023-04-15T03:49:18;9.43;;;5.45;;
77466;SDS011;66564;42.482;25.548;2023-04-15T03:51:44;10.00;;;5.00;;
77466;SDS011;66564;42.482;25.548;2023-04-15T03:54:10;13.05;;;5.97;;
77466;SDS011;66564;42.482;25.548;2023-04-15T03:56:36;14.02;;;5.50;;
77466;SDS011;66564;42.482;25.548;2023-04-15T03:59:03;14.55;;;5.25;;
77466;SDS011;66564;42.482;25.548;2023-04-15T04:01:31;16.63;;;6.45;;
77466;SDS011;66564;42.482;25.548;2023-04-15T04:03:57;16.73;;;6.88;;
77466;SDS011;66564;42.482;25.548;2023-04-15T04:06:22;12.90;;;5.80;;
77466;SDS011;66564;42.482;25.548;2023-04-15T04:08:51;12.45;;;6.65;;
77466;SDS011;66564;42.482;25.548;2023-04-15T04:11:16;10.88;;;5.53;;
77466;SDS011;66564;42.482;25.548;2023-04-15T04:13:42;9.60;;;5.70;;
77466;SDS011;66564;42.482;25.548;2023-04-15T04:16:07;11.63;;;5.70;;
77466;SDS011;66564;42.482;25.548;2023-04-15T04:18:33;11.80;;;6.03;;
77466;SDS011;66564;42.482;25.548;2023-04-15T04:20:59;11.25;;;5.95;;
77466;SDS011;66564;42.482;25.548;2023-04-15T04:23:24;10.30;;;5.57;;
77466;SDS011;66564;42.482;25.548;2023-04-15T04:25:53;9.32;;;5.57;;
77466;SDS011;66564;42.482;25.548;2023-04-15T04:28:18;17.38;;;5.47;;
77466;SDS011;66564;42.482;25.548;2023-04-15T04:30:46;11.85;;;4.88;;
77466;SDS011;66564;42.482;25.548;2023-04-15T04:33:13;12.10;;;5.57;;
77466;SDS011;66564;42.482;25.548;2023-04-15T04:35:39;12.57;;;6.18;;
77466;SDS011;66564;42.482;25.548;2023-04-15T04:38:04;13.18;;;6.55;;
77466;SDS011;66564;42.482;25.548;2023-04-15T04:40:30;8.57;;;6.40;;
77466;SDS011;66564;42.482;25.548;2023-04-15T04:42:55;12.63;;;7.45;;
77466;SDS011;66564;42.482;25.548;2023-04-15T04:45:21;15.70;;;9.45;;
77466;SDS011;66564;42.482;25.548;2023-04-15T04:47:47;18.77;;;11.30;;
77466;SDS011;66564;42.482;25.548;2023-04-15T04:50:13;18.38;;;11.63;;
77466;SDS011;66564;42.482;25.548;2023-04-15T04:52:38;21.02;;;12.73;;
77466;SDS011;66564;42.482;25.548;2023-04-15T04:55:04;20.52;;;13.00;;
77466;SDS011;66564;42.482;25.548;2023-04-15T04:57:30;21.20;;;11.10;;
77466;SDS011;66564;42.482;25.548;2023-04-15T05:00:05;22.33;;;13.60;;
77466;SDS011;66564;42.482;25.548;2023-04-15T05:02:33;21.63;;;12.80;;
77466;SDS011;66564;42.482;25.548;2023-04-15T05:04:59;23.27;;;13.40;;
77466;SDS011;66564;42.482;25.548;2023-04-15T05:07:25;16.10;;;10.65;;
77466;SDS011;66564;42.482;25.548;2023-04-15T05:09:51;19.63;;;10.70;;
77466;SDS011;66564;42.482;25.548;2023-04-15T05:12:26;14.68;;;10.77;;
77466;SDS011;66564;42.482;25.548;2023-04-15T05:14:52;18.02;;;9.77;;
77466;SDS011;66564;42.482;25.548;2023-04-15T05:17:17;16.85;;;8.93;;
77466;SDS011;66564;42.482;25.548;2023-04-15T05:19:43;14.88;;;7.88;;
77466;SDS011;66564;42.482;25.548;2023-04-15T05:22:12;14.32;;;8.10;;
77466;SDS011;66564;42.482;25.548;2023-04-15T05:24:38;13.82;;;8.10;;
77466;SDS011;66564;42.482;25.548;2023-04-15T05:27:03;17.88;;;9.20;;
77466;SDS011;66564;42.482;25.548;2023-04-15T05:29:29;13.30;;;8.88;;
77466;SDS011;66564;42.482;25.548;2023-04-15T05:31:54;16.40;;;9.35;;
77466;SDS011;66564;42.482;25.548;2023-04-15T05:34:20;15.43;;;9.00;;
77466;SDS011;66564;42.482;25.548;2023-04-15T05:36:46;16.80;;;8.57;;
77466;SDS011;66564;42.482;25.548;2023-04-15T05:39:12;16.10;;;9.27;;
77466;SDS011;66564;42.482;25.548;2023-04-15T05:41:37;15.20;;;9.18;;
77466;SDS011;66564;42.482;25.548;2023-04-15T05:44:03;17.10;;;10.05;;
77466;SDS011;66564;42.482;25.548;2023-04-15T05:46:29;17.48;;;10.15;;
77466;SDS011;66564;42.482;25.548;2023-04-15T05:48:54;14.95;;;10.27;;
77466;SDS011;66564;42.482;25.548;2023-04-15T05:51:20;24.73;;;11.57;;
77466;SDS011;66564;42.482;25.548;2023-04-15T05:53:45;16.35;;;12.30;;
77466;SDS011;66564;42.482;25.548;2023-04-15T05:56:11;17.95;;;11.30;;
77466;SDS011;66564;42.482;25.548;2023-04-15T05:58:36;21.48;;;11.98;;
77466;SDS011;66564;42.482;25.548;2023-04-15T06:01:03;25.10;;;12.55;;
77466;SDS011;66564;42.482;25.548;2023-04-15T06:03:29;20.13;;;11.68;;
77466;SDS011;66564;42.482;25.548;2023-04-15T06:05:55;21.02;;;11.65;;
77466;SDS011;66564;42.482;25.548;2023-04-15T06:08:20;23.42;;;12.38;;
77466;SDS011;66564;42.482;25.548;2023-04-15T06:10:46;21.75;;;11.70;;
77466;SDS011;66564;42.482;25.548;2023-04-15T06:13:11;16.83;;;10.45;;
77466;SDS011;66564;42.482;25.548;2023-04-15T06:15:38;18.50;;;9.98;;
77466;SDS011;66564;42.482;25.548;2023-04-15T06:18:03;18.88;;;10.25;;
77466;SDS011;66564;42.482;25.548;2023-04-15T06:20:29;17.48;;;10.32;;
77466;SDS011;66564;42.482;25.548;2023-04-15T06:22:54;14.82;;;8.55;;
77466;SDS011;66564;42.482;25.548;2023-04-15T06:25:21;17.48;;;8.82;;
77466;SDS011;66564;42.482;25.548;2023-04-15T06:27:47;18.65;;;10.88;;
77466;SDS011;66564;42.482;25.548;2023-04-15T06:30:12;11.95;;;8.43;;
77466;SDS011;66564;42.482;25.548;2023-04-15T06:32:38;13.18;;;9.43;;
77466;SDS011;66564;42.482;25.548;2023-04-15T06:35:04;14.18;;;9.70;;
77466;SDS011;66564;42.482;25.548;2023-04-15T06:37:29;18.63;;;9.85;;
77466;SDS011;66564;42.482;25.548;2023-04-15T06:39:55;19.35;;;11.15;;
77466;SDS011;66564;42.482;25.548;2023-04-15T06:42:20;18.85;;;10.38;;
77466;SDS011;66564;42.482;25.548;2023-04-15T06:44:46;23.02;;;10.10;;
77466;SDS011;66564;42.482;25.548;2023-04-15T06:47:12;16.63;;;10.50;;
77466;SDS011;66564;42.482;25.548;2023-04-15T06:49:38;16.15;;;11.00;;
77466;SDS011;66564;42.482;25.548;2023-04-15T06:52:04;18.63;;;10.77;;
77466;SDS011;66564;42.482;25.548;2023-04-15T06:54:30;19.58;;;11.70;;
77466;SDS011;66564;42.482;25.548;2023-04-15T06:56:55;25.73;;;13.80;;
77466;SDS011;66564;42.482;25.548;2023-04-15T06:59:21;21.20;;;12.60;;
77466;SDS011;66564;42.482;25.548;2023-04-15T07:01:47;27.52;;;15.27;;
77466;SDS011;66564;42.482;25.548;2023-04-15T07:04:12;27.25;;;15.85;;
77466;SDS011;66564;42.482;25.548;2023-04-15T07:06:38;26.58;;;14.60;;
77466;SDS011;66564;42.482;25.548;2023-04-15T07:09:04;25.65;;;15.38;;
77466;SDS011;66564;42.482;25.548;2023-04-15T07:11:29;27.25;;;17.13;;
77466;SDS011;66564;42.482;25.548;2023-04-15T07:13:56;23.75;;;14.75;;
77466;SDS011;66564;42.482;25.548;2023-04-15T07:16:22;27.88;;;14.38;;
77466;SDS011;66564;42.482;25.548;2023-04-15T07:18:48;20.80;;;12.70;;
77466;SDS011;66564;42.482;25.548;2023-04-15T07:21:13;22.75;;;12.95;;
77466;SDS011;66564;42.482;25.548;2023-04-15T07:23:39;23.08;;;13.32;;
77466;SDS011;66564;42.482;25.548;2023-04-15T07:26:07;22.00;;;12.45;;
77466;SDS011;66564;42.482;25.548;2023-04-15T07:28:39;19.55;;;12.05;;
77466;SDS011;66564;42.482;25.548;2023-04-15T07:31:07;23.45;;;12.82;;
77466;SDS011;66564;42.482;25.548;2023-04-15T07:33:36;21.35;;;13.18;;
77466;SDS011;66564;42.482;25.548;2023-04-15T07:36:02;22.55;;;14.10;;
77466;SDS011;66564;42.482;25.548;2023-04-15T07:38:38;19.75;;;12.68;;
77466;SDS011;66564;42.482;25.548;2023-04-15T07:41:07;20.63;;;13.20;;
77466;SDS011;66564;42.482;25.548;2023-04-15T07:43:36;19.92;;;12.65;;
77466;SDS011;66564;42.482;25.548;2023-04-15T07:46:07;20.88;;;13.90;;
77466;SDS011;66564;42.482;25.548;2023-04-15T07:48:40;22.10;;;13.23;;
77466;SDS011;66564;42.482;25.548;2023-04-15T07:51:09;21.67;;;13.60;;
77466;SDS011;66564;42.482;25.548;2023-04-15T07:53:36;26.17;;;12.70;;
77466;SDS011;66564;42.482;25.548;2023-04-15T07:56:02;23.13;;;13.65;;
77466;SDS011;66564;42.482;25.548;2023-04-15T07:58:28;19.40;;;12.63;;
77466;SDS011;66564;42.482;25.548;2023-04-15T08:00:54;21.60;;;13.52;;
77466;SDS011;66564;42.482;25.548;2023-04-15T08:03:20;21.33;;;14.18;;
77466;SDS011;66564;42.482;25.548;2023-04-15T08:05:47;20.10;;;13.63;;
77466;SDS011;66564;42.482;25.548;2023-04-15T08:08:13;26.10;;;14.95;;
77466;SDS011;66564;42.482;25.548;2023-04-15T08:10:38;22.88;;;14.30;;
77466;SDS011;66564;42.482;25.548;2023-04-15T08:13:04;25.88;;;14.10;;
77466;SDS011;66564;42.482;25.548;2023-04-15T08:15:29;22.77;;;13.52;;
77466;SDS011;66564;42.482;25.548;2023-04-15T08:17:56;23.02;;;12.05;;
77466;SDS011;66564;42.482;25.548;2023-04-15T08:20:24;25.42;;;12.70;;
77466;SDS011;66564;42.482;25.548;2023-04-15T08:22:51;22.17;;;12.65;;
77466;SDS011;66564;42.482;25.548;2023-04-15T08:25:17;18.85;;;12.05;;
77466;SDS011;66564;42.482;25.548;2023-04-15T08:27:45;19.98;;;11.70;;
77466;SDS011;66564;42.482;25.548;2023-04-15T08:30:11;20.25;;;12.55;;
77466;SDS011;66564;42.482;25.548;2023-04-15T08:32:37;21.98;;;13.85;;
77466;SDS011;66564;42.482;25.548;2023-04-15T08:35:02;21.35;;;13.02;;
77466;SDS011;66564;42.482;25.548;2023-04-15T08:37:29;22.60;;;13.63;;
77466;SDS011;66564;42.482;25.548;2023-04-15T08:39:56;23.25;;;14.60;;
77466;SDS011;66564;42.482;25.548;2023-04-15T08:42:29;26.92;;;14.45;;
77466;SDS011;66564;42.482;25.548;2023-04-15T08:44:59;23.88;;;15.02;;
77466;SDS011;66564;42.482;25.548;2023-04-15T08:47:28;25.35;;;14.85;;
77466;SDS011;66564;42.482;25.548;2023-04-15T08:49:56;24.83;;;15.05;;
77466;SDS011;66564;42.482;25.548;2023-04-15T08:52:25;32.20;;;13.98;;
77466;SDS011;66564;42.482;25.548;2023-04-15T08:54:51;19.95;;;13.50;;
77466;SDS011;66564;42.482;25.548;2023-04-15T08:57:23;25.63;;;13.75;;
77466;SDS011;66564;42.482;25.548;2023-04-15T08:59:51;18.35;;;12.52;;
77466;SDS011;66564;42.482;25.548;2023-04-15T09:02:17;22.20;;;11.95;;
77466;SDS011;66564;42.482;25.548;2023-04-15T09:04:42;24.67;;;13.63;;
77466;SDS011;66564;42.482;25.548;2023-04-15T09:07:11;21.65;;;12.40;;
77466;SDS011;66564;42.482;25.548;2023-04-15T09:09:36;25.02;;;12.13;;
77466;SDS011;66564;42.482;25.548;2023-04-15T09:12:04;18.25;;;12.90;;
77466;SDS011;66564;42.482;25.548;2023-04-15T09:14:29;25.98;;;12.82;;
77466;SDS011;66564;42.482;25.548;2023-04-15T09:16:57;20.65;;;12.30;;
77466;SDS011;66564;42.482;25.548;2023-04-15T09:19:24;17.13;;;10.63;;
77466;SDS011;66564;42.482;25.548;2023-04-15T09:21:52;15.10;;;9.30;;
77466;SDS011;66564;42.482;25.548;2023-04-15T09:24:19;15.88;;;9.30;;
77466;SDS011;66564;42.482;25.548;2023-04-15T09:26:44;14.63;;;9.23;;
77466;SDS011;66564;42.482;25.548;2023-04-15T09:29:10;15.38;;;10.38;;
77466;SDS011;66564;42.482;25.548;2023-04-15T09:34:05;17.67;;;10.75;;
77466;SDS011;66564;42.482;25.548;2023-04-15T09:39:12;26.88;;;12.57;;
77466;SDS011;66564;42.482;25.548;2023-04-15T09:41:38;21.13;;;11.23;;
77466;SDS011;66564;42.482;25.548;2023-04-15T09:44:05;14.90;;;9.07;;
77466;SDS011;66564;42.482;25.548;2023-04-15T09:46:40;14.25;;;8.15;;
77466;SDS011;66564;42.482;25.548;2023-04-15T09:49:07;22.80;;;8.85;;
77466;SDS011;66564;42.482;25.548;2023-04-15T09:51:34;10.50;;;7.18;;
77466;SDS011;66564;42.482;25.548;2023-04-15T09:54:00;13.65;;;8.80;;
77466;SDS011;66564;42.482;25.548;2023-04-15T09:56:36;13.00;;;8.35;;
77466;SDS011;66564;42.482;25.548;2023-04-15T09:59:06;9.43;;;7.38;;
77466;SDS011;66564;42.482;25.548;2023-04-15T10:01:33;12.00;;;7.30;;
77466;SDS011;66564;42.482;25.548;2023-04-15T10:04:02;13.15;;;7.55;;
77466;SDS011;66564;42.482;25.548;2023-04-15T10:06:28;15.13;;;7.43;;
77466;SDS011;66564;42.482;25.548;2023-04-15T10:08:54;10.90;;;7.10;;
77466;SDS011;66564;42.482;25.548;2023-04-15T10:11:21;11.45;;;6.78;;
77466;SDS011;66564;42.482;25.548;2023-04-15T10:13:48;11.15;;;7.20;;
77466;SDS011;66564;42.482;25.548;2023-04-15T10:16:15;11.48;;;6.85;;
77466;SDS011;66564;42.482;25.548;2023-04-15T10:18:46;10.23;;;6.72;;
77466;SDS011;66564;42.482;25.548;2023-04-15T10:21:15;16.55;;;6.57;;
77466;SDS011;66564;42.482;25.548;2023-04-15T10:23:44;13.45;;;7.05;;
77466;SDS011;66564;42.482;25.548;2023-04-15T10:26:11;11.88;;;6.28;;
77466;SDS011;66564;42.482;25.548;2023-04-15T10:28:38;13.93;;;7.75;;
77466;SDS011;66564;42.482;25.548;2023-04-15T10:31:04;10.30;;;6.22;;
77466;SDS011;66564;42.482;25.548;2023-04-15T10:33:31;9.32;;;5.93;;
77466;SDS011;66564;42.482;25.548;2023-04-15T10:35:58;8.63;;;5.75;;
77466;SDS011;66564;42.482;25.548;2023-04-15T10:43:47;7.40;;;4.80;;
77466;SDS011;66564;42.482;25.548;2023-04-15T10:46:20;10.45;;;5.20;;
77466;SDS011;66564;42.482;25.548;2023-04-15T10:48:47;7.43;;;4.20;;
77466;SDS011;66564;42.482;25.548;2023-04-15T10:51:13;8.85;;;3.78;;
77466;SDS011;66564;42.482;25.548;2023-04-15T10:53:40;7.60;;;4.05;;
77466;SDS011;66564;42.482;25.548;2023-04-15T10:56:06;6.97;;;3.85;;
77466;SDS011;66564;42.482;25.548;2023-04-15T10:58:41;6.40;;;3.40;;
77466;SDS011;66564;42.482;25.548;2023-04-15T11:01:08;7.85;;;4.47;;
77466;SDS011;66564;42.482;25.548;2023-04-15T11:03:38;11.13;;;5.25;;
77466;SDS011;66564;42.482;25.548;2023-04-15T11:06:06;9.95;;;4.82;;
77466;SDS011;66564;42.482;25.548;2023-04-15T11:12:31;10.45;;;4.53;;
77466;SDS011;66564;42.482;25.548;2023-04-15T11:14:33;9.48;;;5.00;;
77466;SDS011;66564;42.482;25.548;2023-04-15T11:17:01;12.18;;;5.15;;
77466;SDS011;66564;42.482;25.548;2023-04-15T11:19:34;8.80;;;4.80;;
77466;SDS011;66564;42.482;25.548;2023-04-15T11:22:09;7.78;;;4.55;;
77466;SDS011;66564;42.482;25.548;2023-04-15T11:24:36;10.25;;;4.40;;
77466;SDS011;66564;42.482;25.548;2023-04-15T11:27:23;10.10;;;4.13;;
77466;SDS011;66564;42.482;25.548;2023-04-15T11:29:49;8.23;;;4.18;;
77466;SDS011;66564;42.482;25.548;2023-04-15T11:32:16;8.98;;;4.55;;
77466;SDS011;66564;42.482;25.548;2023-04-15T11:34:44;10.00;;;3.88;;
77466;SDS011;66564;42.482;25.548;2023-04-15T11:37:10;6.40;;;3.95;;
77466;SDS011;66564;42.482;25.548;2023-04-15T11:39:36;8.32;;;3.78;;
77466;SDS011;66564;42.482;25.548;2023-04-15T11:42:01;6.57;;;3.42;;
77466;SDS011;66564;42.482;25.548;2023-04-15T11:44:29;6.43;;;4.07;;
77466;SDS011;66564;42.482;25.548;2023-04-15T11:46:55;7.70;;;4.50;;
77466;SDS011;66564;42.482;25.548;2023-04-15T11:49:29;12.95;;;6.28;;
77466;SDS011;66564;42.482;25.548;2023-04-15T11:51:58;12.40;;;5.90;;
77466;SDS011;66564;42.482;25.548;2023-04-15T11:54:24;8.27;;;4.75;;
77466;SDS011;66564;42.482;25.548;2023-04-15T11:56:50;6.75;;;4.60;;
77466;SDS011;66564;42.482;25.548;2023-04-15T11:59:17;6.65;;;4.60;;
77466;SDS011;66564;42.482;25.548;2023-04-15T12:01:43;11.15;;;4.15;;
77466;SDS011;66564;42.482;25.548;2023-04-15T12:04:13;6.38;;;4.57;;
77466;SDS011;66564;42.482;25.548;2023-04-15T12:06:43;10.25;;;4.80;;
77466;SDS011;66564;42.482;25.548;2023-04-15T12:09:10;7.50;;;3.75;;
77466;SDS011;66564;42.482;25.548;2023-04-15T12:11:43;8.82;;;4.28;;
77466;SDS011;66564;42.482;25.548;2023-04-15T12:14:29;10.82;;;6.00;;
77466;SDS011;66564;42.482;25.548;2023-04-15T12:16:57;13.23;;;4.40;;
77466;SDS011;66564;42.482;25.548;2023-04-15T12:19:29;9.23;;;3.20;;
77466;SDS011;66564;42.482;25.548;2023-04-15T12:21:59;6.57;;;3.08;;
77466;SDS011;66564;42.482;25.548;2023-04-15T12:24:26;8.27;;;2.75;;
77466;SDS011;66564;42.482;25.548;2023-04-15T12:26:53;5.10;;;2.72;;
77466;SDS011;66564;42.482;25.548;2023-04-15T12:29:25;8.88;;;3.08;;
77466;SDS011;66564;42.482;25.548;2023-04-15T12:31:53;5.22;;;2.25;;
77466;SDS011;66564;42.482;25.548;2023-04-15T12:34:32;6.75;;;2.45;;
77466;SDS011;66564;42.482;25.548;2023-04-15T12:37:00;8.02;;;2.50;;
77466;SDS011;66564;42.482;25.548;2023-04-15T12:39:27;5.32;;;2.47;;
77466;SDS011;66564;42.482;25.548;2023-04-15T12:41:55;6.47;;;2.88;;
77466;SDS011;66564;42.482;25.548;2023-04-15T12:44:21;5.43;;;2.72;;
77466;SDS011;66564;42.482;25.548;2023-04-15T12:46:48;5.70;;;2.40;;
77466;SDS011;66564;42.482;25.548;2023-04-15T12:51:44;6.05;;;2.78;;
77466;SDS011;66564;42.482;25.548;2023-04-15T12:54:12;5.70;;;2.97;;
77466;SDS011;66564;42.482;25.548;2023-04-15T12:56:38;9.52;;;4.50;;
77466;SDS011;66564;42.482;25.548;2023-04-15T12:59:03;8.52;;;4.00;;
77466;SDS011;66564;42.482;25.548;2023-04-15T13:01:29;12.85;;;4.05;;
77466;SDS011;66564;42.482;25.548;2023-04-15T13:03:54;7.20;;;4.05;;
77466;SDS011;66564;42.482;25.548;2023-04-15T13:06:20;8.65;;;3.45;;
77466;SDS011;66564;42.482;25.548;2023-04-15T13:08:45;9.07;;;3.90;;
77466;SDS011;66564;42.482;25.548;2023-04-15T13:11:12;8.15;;;4.03;;
77466;SDS011;66564;42.482;25.548;2023-04-15T13:13:38;8.95;;;3.97;;
77466;SDS011;66564;42.482;25.548;2023-04-15T13:16:03;10.68;;;4.03;;
77466;SDS011;66564;42.482;25.548;2023-04-15T13:18:29;8.45;;;3.40;;
77466;SDS011;66564;42.482;25.548;2023-04-15T13:20:55;10.00;;;4.28;;
77466;SDS011;66564;42.482;25.548;2023-04-15T13:23:21;6.35;;;3.60;;
77466;SDS011;66564;42.482;25.548;2023-04-15T13:25:46;10.85;;;3.97;;
77466;SDS011;66564;42.482;25.548;2023-04-15T13:28:12;6.50;;;3.35;;
77466;SDS011;66564;42.482;25.548;2023-04-15T13:30:37;8.98;;;3.85;;
77466;SDS011;66564;42.482;25.548;2023-04-15T13:33:03;9.18;;;3.38;;
77466;SDS011;66564;42.482;25.548;2023-04-15T13:35:30;5.80;;;3.20;;
77466;SDS011;66564;42.482;25.548;2023-04-15T13:37:56;5.28;;;3.70;;
77466;SDS011;66564;42.482;25.548;2023-04-15T13:40:23;5.38;;;3.63;;
77466;SDS011;66564;42.482;25.548;2023-04-15T13:42:50;12.02;;;4.50;;
77466;SDS011;66564;42.482;25.548;2023-04-15T13:45:17;14.02;;;4.07;;
77466;SDS011;66564;42.482;25.548;2023-04-15T13:47:43;7.35;;;3.97;;
77466;SDS011;66564;42.482;25.548;2023-04-15T13:50:09;9.05;;;4.35;;
77466;SDS011;66564;42.482;25.548;2023-04-15T13:52:35;9.35;;;5.03;;
77466;SDS011;66564;42.482;25.548;2023-04-15T13:55:01;8.20;;;4.57;;
77466;SDS011;66564;42.482;25.548;2023-04-15T13:57:27;7.82;;;4.10;;
77466;SDS011;66564;42.482;25.548;2023-04-15T13:59:53;7.25;;;4.80;;
77466;SDS011;66564;42.482;25.548;2023-04-15T14:02:20;6.82;;;4.60;;
77466;SDS011;66564;42.482;25.548;2023-04-15T14:04:46;8.88;;;5.55;;
77466;SDS011;66564;42.482;25.548;2023-04-15T14:07:12;9.80;;;4.50;;
77466;SDS011;66564;42.482;25.548;2023-04-15T14:09:37;12.60;;;4.30;;
77466;SDS011;66564;42.482;25.548;2023-04-15T14:12:03;7.32;;;4.18;;
77466;SDS011;66564;42.482;25.548;2023-04-15T14:14:29;8.27;;;4.97;;
77466;SDS011;66564;42.482;25.548;2023-04-15T14:16:54;13.48;;;6.13;;
77466;SDS011;66564;42.482;25.548;2023-04-15T14:19:21;8.25;;;6.07;;
77466;SDS011;66564;42.482;25.548;2023-04-15T14:21:46;8.10;;;4.30;;
77466;SDS011;66564;42.482;25.548;2023-04-15T14:24:12;10.70;;;4.68;;
77466;SDS011;66564;42.482;25.548;2023-04-15T14:26:38;11.48;;;5.10;;
77466;SDS011;66564;42.482;25.548;2023-04-15T14:29:03;9.63;;;5.93;;
77466;SDS011;66564;42.482;25.548;2023-04-15T14:31:29;11.93;;;5.25;;
77466;SDS011;66564;42.482;25.548;2023-04-15T14:33:54;6.30;;;4.10;;